Time;durP1;ratioP1;P1;durP2;ratioP2;P2;SDS_P1;SDS_P2;PMS_P1;PMS_P2;Temp;Humidity;BMP_temperature;BMP_pressure;BME280_temperature;BME280_humidity;BME280_pressure;Samples;Min_cycle;Max_cycle;Signal;HPM_P1;HPM_P2
2021/11/28 07:35:56;;;;;;;6.63;5.13;;;;;;;6.82;59.54;96793.59;6651433;29;20215;-85
2021/11/28 07:39:45;;;;;;;5.53;5.03;;;;;;;7.23;58.81;96796.19;6648771;29;20701;-84
2021/11/28 07:43:27;;;;;;;5.93;5.30;;;;;;;7.34;57.60;96798.06;6645623;29;20249;-85
2021/11/28 08:09:02;;;;;;;9.37;7.10;;;;;;;7.58;55.50;96789.78;6649336;29;20275;-84
2021/11/28 08:43:06;;;;;;;10.80;7.03;;;;;;;7.46;57.59;96809.59;6646944;29;20693;-83
2021/11/28 10:44:09;;;;;;;10.57;8.50;;;;;;;8.26;54.77;96663.72;7441850;22;20240;-93
2021/11/28 10:47:45;;;;;;;9.83;7.93;;;;;;;9.37;55.24;96802.28;6994253;28;20219;-94
2021/11/28 10:51:17;;;;;;;12.10;9.07;;;;;;;9.60;55.18;96807.47;6994428;28;20217;-93
2021/11/28 10:54:55;;;;;;;12.40;10.13;;;;;;;9.03;55.39;96718.16;6993436;28;20690;-94
2021/11/28 10:58:20;;;;;;;11.40;8.40;;;;;;;8.83;53.91;96682.13;6994031;28;20246;-93
2021/11/28 11:01:47;;;;;;;12.47;8.83;;;;;;;8.91;54.34;96813.34;6976097;28;20209;-94
2021/11/28 11:13:22;;;;;;;15.43;8.37;;;;;;;8.72;53.82;96766.28;6993935;28;20204;-93
2021/11/28 11:17:02;;;;;;;10.27;8.07;;;;;;;9.24;53.79;96784.63;6999731;28;20209;-94
2021/11/28 11:20:27;;;;;;;11.13;7.93;;;;;;;9.20;53.53;96775.44;6992780;28;20218;-93
2021/11/28 11:23:59;;;;;;;15.20;8.87;;;;;;;9.25;52.64;96756.69;6993287;28;20234;-94
2021/11/28 11:27:25;;;;;;;14.23;9.93;;;;;;;8.72;53.02;96719.81;6974221;28;20209;-93
2021/11/28 11:30:49;;;;;;;15.07;9.43;;;;;;;9.36;52.75;96733.44;6975280;28;20662;-95
2021/11/28 11:34:33;;;;;;;12.87;8.90;;;;;;;8.96;52.00;96676.41;6975102;28;20208;-94
2021/11/28 11:38:02;;;;;;;9.53;6.57;;;;;;;8.52;52.72;96668.44;6993565;28;20209;-94
2021/11/28 11:41:30;;;;;;;7.67;6.10;;;;;;;8.12;52.35;96644.38;6976622;28;20191;-94
2021/11/28 11:45:03;;;;;;;7.33;6.30;;;;;;;9.10;53.95;96809.41;6992958;28;20260;-93
2021/11/28 11:49:03;;;;;;;6.90;5.63;;;;;;;8.44;52.40;96793.16;6991730;28;20196;-94
2021/11/28 11:52:36;;;;;;;6.77;6.07;;;;;;;7.95;53.32;96688.34;6974832;28;20244;-92
2021/11/28 11:56:11;;;;;;;6.07;5.43;;;;;;;7.91;53.92;96711.34;6992717;28;20235;-93
2021/11/28 11:59:37;;;;;;;7.00;5.73;;;;;;;8.36;53.44;96793.56;6992013;28;20209;-92
2021/11/28 12:03:16;;;;;;;11.10;5.57;;;;;;;7.87;53.38;96668.09;6974157;28;20244;-91
2021/11/28 12:06:53;;;;;;;9.67;5.60;;;;;;;7.46;53.77;96697.84;6991804;28;20327;-92
2021/11/28 12:10:40;;;;;;;7.53;5.37;;;;;;;8.23;53.69;96718.69;6991260;28;20206;-92
2021/11/28 12:14:07;;;;;;;5.77;4.90;;;;;;;8.57;52.89;96747.25;6991236;28;20210;-92
2021/11/28 12:17:42;;;;;;;8.83;5.50;;;;;;;8.59;51.87;96758.53;7001115;28;20203;-92
2021/11/28 12:21:05;;;;;;;8.50;6.63;;;;;;;8.24;52.83;96698.06;6999796;28;20212;-92
2021/11/28 12:24:31;;;;;;;10.97;6.83;;;;;;;7.99;52.89;96668.84;7017832;28;20229;-92
2021/11/28 12:27:57;;;;;;;8.00;6.07;;;;;;;8.28;53.65;96726.03;7018740;28;20295;-93
2021/11/28 12:31:38;;;;;;;8.03;6.13;;;;;;;7.45;54.18;96672.09;7019513;28;20202;-93
2021/11/28 12:35:10;;;;;;;7.13;5.93;;;;;;;8.36;53.28;96729.13;7001387;28;20621;-95
2021/11/28 12:38:49;;;;;;;8.47;7.67;;;;;;;8.62;52.88;96750.03;7019680;28;20212;-93
2021/11/28 12:42:49;;;;;;;9.13;6.60;;;;;;;9.01;53.33;96810.84;7018928;28;20230;-94
2021/11/28 12:46:42;;;;;;;7.87;6.40;;;;;;;8.12;53.57;96681.13;7018622;28;20234;-95
2021/11/28 12:50:22;;;;;;;6.37;5.77;;;;;;;8.04;53.27;96714.56;6985362;28;20212;-93
2021/11/28 12:53:46;;;;;;;7.97;5.80;;;;;;;9.07;51.82;96766.06;7019029;28;20203;-94
2021/11/28 12:57:31;;;;;;;10.27;6.93;;;;;;;8.66;52.99;96815.59;6961195;28;20209;-94
2021/11/28 13:00:54;;;;;;;8.70;6.30;;;;;;;8.97;52.49;96774.78;6960294;28;20295;-93
2021/11/28 13:04:48;;;;;;;15.50;10.77;;;;;;;8.91;52.38;96748.88;6944759;28;20276;-94
2021/11/28 13:08:41;;;;;;;9.80;6.33;;;;;;;9.41;51.48;96800.75;6940403;28;20410;-95
2021/11/28 13:12:09;;;;;;;7.70;6.43;;;;;;;8.11;52.10;96685.69;6962912;28;20221;-95
2021/11/28 13:15:35;;;;;;;8.60;6.23;;;;;;;8.78;50.55;96729.59;6962846;28;20247;-93
2021/11/28 13:19:02;;;;;;;7.97;6.40;;;;;;;9.08;51.05;96798.06;6975722;28;20224;-94
2021/11/28 13:22:43;;;;;;;8.00;6.40;;;;;;;8.61;51.18;96723.41;6961423;28;20190;-94
2021/11/28 13:26:20;;;;;;;8.30;6.37;;;;;;;9.20;51.14;96753.09;6966638;28;20234;-93
2021/11/28 13:30:07;;;;;;;7.57;6.77;;;;;;;9.10;52.23;96756.44;7000798;28;20219;-93
2021/11/28 13:33:34;;;;;;;9.57;6.80;;;;;;;8.92;51.81;96669.91;7017901;28;20253;-95
2021/11/28 13:36:59;;;;;;;6.83;6.10;;;;;;;9.28;51.69;96715.84;7000487;28;20240;-94
2021/11/28 13:40:34;;;;;;;10.83;7.13;;;;;;;9.02;51.71;96715.72;7018117;28;20214;-95
2021/11/28 13:48:01;;;;;;;9.37;7.17;;;;;;;9.15;51.83;96739.59;7018263;28;20199;-95
2021/11/28 13:52:16;;;;;;;8.97;6.30;;;;;;;8.66;52.46;96790.63;7000698;28;20214;-94
2021/11/28 13:56:00;;;;;;;8.60;6.27;;;;;;;8.58;52.46;96751.56;7017719;28;20203;-95
2021/11/28 13:59:47;;;;;;;9.50;6.47;;;;;;;8.24;53.67;96711.47;7018438;28;20654;-96
2021/11/28 14:07:40;;;;;;;7.53;6.30;;;;;;;9.02;52.27;96799.03;7031952;28;20170;-93
2021/11/28 14:11:27;;;;;;;7.37;6.40;;;;;;;8.82;53.26;96758.41;7016595;28;20214;-95
2021/11/28 14:18:46;;;;;;;6.60;5.93;;;;;;;8.90;52.73;96800.97;7012565;28;20336;-94
2021/11/28 14:22:29;;;;;;;7.50;6.20;;;;;;;9.02;53.15;96799.88;7015104;28;20243;-94
2021/11/28 14:25:55;;;;;;;8.10;6.93;;;;;;;8.48;53.96;96754.03;7016530;28;20228;-94
2021/11/28 14:33:05;;;;;;;9.23;8.27;;;;;;;8.51;55.11;96758.94;7017030;28;20267;-94
2021/11/28 14:36:31;;;;;;;11.57;9.33;;;;;;;8.40;56.51;96824.25;7016699;28;20210;-93
2021/11/28 14:40:06;;;;;;;12.40;10.03;;;;;;;7.95;56.70;96768.84;7016768;28;20208;-94
2021/11/28 14:43:35;;;;;;;12.83;9.90;;;;;;;8.44;56.52;96787.00;7016390;28;20242;-94
2021/11/28 14:47:03;;;;;;;13.40;10.73;;;;;;;7.28;58.72;96769.50;7016597;28;20215;-93
2021/11/28 14:50:40;;;;;;;14.53;9.77;;;;;;;8.31;56.79;96806.88;6999301;28;20299;-93
2021/11/28 14:54:11;;;;;;;9.87;8.13;;;;;;;8.30;55.36;96782.97;7000756;28;20246;-94
2021/11/28 14:57:57;;;;;;;11.73;9.37;;;;;;;8.09;56.08;96743.34;7017382;28;20228;-95
2021/11/28 15:01:21;;;;;;;9.27;8.30;;;;;;;8.19;54.83;96719.41;7015142;28;20307;-93
2021/11/28 15:05:04;;;;;;;11.10;7.80;;;;;;;8.55;54.00;96738.59;7016897;28;20238;-95
2021/11/28 15:08:38;;;;;;;12.47;7.80;;;;;;;8.81;52.84;96797.09;6999745;28;20199;-96
2021/11/28 15:12:08;;;;;;;7.57;6.80;;;;;;;8.00;53.48;96742.91;7016878;28;20207;-95
2021/11/28 15:15:35;;;;;;;6.77;6.17;;;;;;;8.46;53.20;96761.53;7017462;28;20293;-96
2021/11/28 15:19:02;;;;;;;8.00;6.63;;;;;;;8.16;54.19;96736.78;6999759;28;20221;-95
2021/11/28 15:22:31;;;;;;;9.10;7.33;;;;;;;8.11;53.48;96774.25;7017261;28;20306;-95
2021/11/28 15:25:56;;;;;;;9.93;7.30;;;;;;;7.83;54.58;96760.81;7004737;28;20237;-96
2021/11/28 15:29:23;;;;;;;6.57;5.97;;;;;;;7.60;54.98;96774.25;7022082;28;20286;-96
2021/11/28 15:33:07;;;;;;;8.40;6.47;;;;;;;8.17;54.67;96813.56;7022730;28;20206;-95
2021/11/28 15:36:37;;;;;;;8.47;7.33;;;;;;;8.64;53.66;96796.25;7005104;28;20317;-95
2021/11/28 15:40:06;;;;;;;10.33;8.80;;;;;;;8.08;55.39;96792.72;7006262;28;20218;-94
2021/11/28 15:43:29;;;;;;;9.37;8.33;;;;;;;8.84;54.37;96844.16;7004410;28;20274;-95
2021/11/28 15:46:56;;;;;;;11.60;9.47;;;;;;;8.14;54.55;96768.41;7020868;28;20232;-94
2021/11/28 15:50:21;;;;;;;11.07;9.33;;;;;;;8.36;54.53;96782.81;7018827;28;20219;-93
2021/11/28 15:53:44;;;;;;;10.53;7.97;;;;;;;8.12;54.12;96732.13;7000691;28;20641;-93
2021/11/28 15:57:13;;;;;;;16.03;12.57;;;;;;;7.59;56.61;96799.44;6983956;28;20202;-92
2021/11/28 16:00:35;;;;;;;14.27;11.40;;;;;;;7.12;57.90;96733.53;6990014;28;20200;-93
2021/11/28 16:03:59;;;;;;;10.60;8.47;;;;;;;8.40;56.36;96828.78;6990375;28;20381;-93
2021/11/28 16:07:27;;;;;;;11.37;8.63;;;;;;;7.79;56.15;96715.94;6974137;28;20288;-93
2021/11/28 16:10:53;;;;;;;13.67;9.60;;;;;;;8.45;55.46;96784.09;6990759;28;20298;-93
2021/11/28 16:14:17;;;;;;;11.40;7.53;;;;;;;8.82;55.29;96847.06;6990745;28;20200;-92
2021/11/28 16:17:40;;;;;;;10.13;8.70;;;;;;;8.37;55.94;96792.50;6973220;28;20219;-94
2021/11/28 16:21:05;;;;;;;8.80;7.53;;;;;;;8.42;55.62;96806.03;6989839;28;20229;-93
2021/11/28 16:24:37;;;;;;;9.10;6.47;;;;;;;8.18;54.98;96780.28;6990875;28;20231;-94
2021/11/28 16:28:09;;;;;;;8.03;6.80;;;;;;;8.70;54.87;96857.06;6991082;28;20208;-93
2021/11/28 16:35:54;;;;;;;8.90;7.87;;;;;;;7.94;55.67;96778.75;6989970;28;20176;-94
2021/11/28 16:39:17;;;;;;;12.27;9.00;;;;;;;8.48;54.62;96817.69;6990839;28;20195;-92
2021/11/28 16:42:49;;;;;;;9.43;7.97;;;;;;;7.84;55.63;96735.59;6992835;28;20207;-94
2021/11/28 16:46:13;;;;;;;11.63;8.57;;;;;;;7.99;56.57;96839.72;6989969;28;20234;-93
2021/11/28 16:49:37;;;;;;;15.80;11.37;;;;;;;8.17;56.00;96829.66;6989926;28;20218;-94
2021/11/28 16:53:05;;;;;;;10.07;8.87;;;;;;;7.70;57.02;96828.13;6989572;28;20219;-93
2021/11/28 16:56:28;;;;;;;13.73;10.90;;;;;;;7.58;57.22;96792.47;6971975;28;20241;-94
2021/11/28 17:00:01;;;;;;;12.70;9.20;;;;;;;8.49;56.78;96859.59;6971266;28;20208;-93
2021/11/28 17:03:45;;;;;;;12.73;9.93;;;;;;;7.77;56.29;96744.88;6923110;28;20237;-93
2021/11/28 17:07:18;;;;;;;13.40;10.80;;;;;;;8.65;56.61;96877.63;6991531;28;20235;-93
2021/11/28 17:10:42;;;;;;;15.73;10.30;;;;;;;8.17;56.62;96800.13;6989055;28;20210;-93
2021/11/28 17:14:07;;;;;;;13.23;10.43;;;;;;;7.68;56.97;96803.41;6972016;28;20204;-93
2021/11/28 17:17:30;;;;;;;12.57;10.80;;;;;;;7.84;56.85;96826.81;6989120;28;20649;-93
2021/11/28 17:20:57;;;;;;;16.97;12.47;;;;;;;7.72;57.47;96849.34;6989027;28;20227;-95
2021/11/28 17:24:23;;;;;;;13.87;10.73;;;;;;;7.40;58.25;96819.41;6971699;28;20210;-95
2021/11/28 17:27:53;;;;;;;15.83;13.70;;;;;;;7.01;58.49;96736.22;6971331;28;20571;-95
2021/11/28 17:31:28;;;;;;;;;;;;;;;;;;;;;
2021/11/28 17:35:17;;;;;;;25.80;15.87;;;;;;;7.69;57.94;96837.22;6971678;28;20210;-95
2021/11/28 17:39:16;;;;;;;18.33;12.37;;;;;;;8.23;58.42;96901.22;6988594;28;20215;-93
2021/11/28 17:42:43;;;;;;;15.93;10.23;;;;;;;8.31;57.36;96874.00;6986997;28;20592;-94
2021/11/28 17:46:07;;;;;;;11.97;9.83;;;;;;;8.16;56.51;96844.16;6986176;28;20227;-95
2021/11/28 17:49:30;;;;;;;19.03;12.83;;;;;;;7.91;57.40;96894.56;6986040;28;20270;-93
2021/11/28 17:52:53;;;;;;;16.47;13.10;;;;;;;7.27;58.42;96830.34;6986404;28;20214;-94
2021/11/28 17:56:17;;;;;;;22.07;16.53;;;;;;;7.71;57.61;96834.31;6989006;28;20214;-93
2021/11/28 17:59:42;;;;;;;17.00;11.50;;;;;;;8.17;56.31;96826.97;6990665;28;20206;-93
2021/11/28 18:03:07;;;;;;;13.93;11.27;;;;;;;7.72;56.37;96767.00;7004783;28;20203;-94
2021/11/28 18:06:30;;;;;;;15.03;11.43;;;;;;;8.04;56.19;96877.41;7005712;28;20221;-93
2021/11/28 18:09:54;;;;;;;14.97;11.23;;;;;;;7.45;58.25;96866.94;6988757;28;20549;-93
2021/11/28 18:13:16;;;;;;;14.57;11.10;;;;;;;7.88;57.50;96840.56;6968910;28;20211;-93
2021/11/28 18:16:39;;;;;;;12.23;10.63;;;;;;;7.83;56.54;96805.59;6952381;28;20211;-94
2021/11/28 18:20:05;;;;;;;15.07;12.50;;;;;;;7.61;56.58;96863.56;6986117;28;20236;-94
2021/11/28 18:23:28;;;;;;;18.50;13.60;;;;;;;7.70;57.45;96876.41;6985474;28;20211;-93
2021/11/28 18:26:52;;;;;;;15.67;13.83;;;;;;;7.72;58.66;96945.91;6985500;28;20238;-93
2021/11/28 18:30:15;;;;;;;21.53;16.17;;;;;;;7.46;58.32;96858.69;6986135;28;20208;-94
2021/11/28 18:33:40;;;;;;;17.07;11.67;;;;;;;7.83;56.97;96894.13;6985727;28;20203;-93
2021/11/28 18:37:05;;;;;;;16.10;12.70;;;;;;;7.58;57.57;96885.47;6985927;28;20218;-94
2021/11/28 18:40:39;;;;;;;15.77;12.53;;;;;;;7.12;57.75;96824.63;6968329;28;20355;-93
2021/11/28 18:44:01;;;;;;;18.67;13.03;;;;;;;7.65;58.24;96896.91;6986347;28;20277;-93
2021/11/28 18:47:27;;;;;;;17.10;13.37;;;;;;;7.62;57.66;96878.63;6985928;28;20265;-94
2021/11/28 18:50:54;;;;;;;18.00;13.70;;;;;;;6.84;58.76;96840.53;6985774;28;20306;-93
2021/11/28 18:54:22;;;;;;;15.73;12.10;;;;;;;7.12;59.32;96883.56;6986749;28;20212;-94
2021/11/28 18:57:48;;;;;;;14.00;10.93;;;;;;;6.92;58.91;96834.84;6985829;28;20223;-94
2021/11/28 19:01:14;;;;;;;15.03;11.83;;;;;;;7.80;58.44;96914.19;6990842;28;20206;-94
2021/11/28 19:04:55;;;;;;;19.30;13.30;;;;;;;7.45;56.92;96827.56;6991877;28;20250;-93
2021/11/28 19:08:19;;;;;;;23.00;14.50;;;;;;;8.00;56.56;96951.38;6990770;28;20292;-93
2021/11/28 19:11:45;;;;;;;16.60;11.17;;;;;;;7.44;57.75;96935.03;6990466;28;20226;-93
2021/11/28 19:15:09;;;;;;;14.87;10.80;;;;;;;7.30;58.85;96955.84;6990148;28;20211;-93
2021/11/28 19:18:34;;;;;;;14.93;11.93;;;;;;;7.28;58.47;96906.19;6972948;28;20207;-93
2021/11/28 19:21:57;;;;;;;11.50;10.23;;;;;;;6.38;59.35;96826.97;6990622;28;20284;-93
2021/11/28 19:25:22;;;;;;;24.43;15.87;;;;;;;7.22;59.19;96968.75;6972628;28;20223;-94
2021/11/28 19:28:46;;;;;;;37.60;24.90;;;;;;;7.13;58.97;96936.09;6990618;28;20222;-93
2021/11/28 19:32:09;;;;;;;26.67;18.37;;;;;;;7.48;58.93;96965.69;6989979;28;20221;-92
2021/11/28 19:35:32;;;;;;;24.63;17.63;;;;;;;7.07;60.34;96937.03;6981729;28;20227;-93
2021/11/28 19:38:55;;;;;;;24.63;17.97;;;;;;;7.45;60.12;97001.81;6962106;28;20254;-93
2021/11/28 19:42:17;;;;;;;25.13;17.43;;;;;;;7.73;59.66;96998.50;6961602;28;20231;-93
2021/11/28 19:45:43;;;;;;;26.33;18.20;;;;;;;6.98;60.02;96897.38;6960955;28;20228;-92
2021/11/28 19:49:07;;;;;;;22.20;17.53;;;;;;;6.89;59.80;96875.47;6960999;28;20713;-94
2021/11/28 19:52:32;;;;;;;24.03;15.97;;;;;;;7.50;59.76;96956.38;6962081;28;20212;-94
2021/11/28 19:56:07;;;;;;;19.03;16.50;;;;;;;7.35;60.47;96945.25;6961362;28;20212;-94
2021/11/28 19:59:31;;;;;;;20.20;15.63;;;;;;;7.57;59.96;96945.53;6961258;28;20235;-94
2021/11/28 20:02:57;;;;;;;32.00;20.37;;;;;;;7.76;59.63;96995.34;6961213;28;20693;-95
2021/11/28 20:06:20;;;;;;;16.87;12.90;;;;;;;7.56;59.73;96981.44;6964264;28;20288;-93
2021/11/28 20:09:43;;;;;;;12.90;10.87;;;;;;;7.45;58.75;96961.59;6962658;28;20231;-93
2021/11/28 20:13:08;;;;;;;12.50;10.73;;;;;;;7.80;58.71;97007.25;6965893;28;20204;-93
2021/11/28 20:16:34;;;;;;;10.60;9.47;;;;;;;7.56;58.35;96923.28;6962509;28;20207;-93
2021/11/28 20:20:12;;;;;;;13.03;10.87;;;;;;;7.92;57.38;96949.88;6963912;28;20223;-95
2021/11/28 20:23:37;;;;;;;22.30;15.83;;;;;;;7.91;57.63;96998.41;6945613;28;20212;-95
2021/11/28 20:27:07;;;;;;;21.73;15.97;;;;;;;7.46;57.25;96900.75;6962461;28;20235;-94
2021/11/28 20:30:32;;;;;;;21.23;14.90;;;;;;;6.87;58.24;96868.72;6962886;28;20218;-96
2021/11/28 20:33:58;;;;;;;23.93;17.33;;;;;;;6.66;59.38;96890.66;6963244;28;20226;-96
2021/11/28 20:37:28;;;;;;;26.17;16.40;;;;;;;6.72;60.40;96940.63;6962674;28;20245;-95
2021/11/28 20:40:51;;;;;;;23.10;15.57;;;;;;;6.78;60.50;96900.34;6945094;28;20205;-95
2021/11/28 20:44:16;;;;;;;22.30;16.43;;;;;;;7.46;60.32;97014.16;6961963;28;20212;-94
2021/11/28 20:47:42;;;;;;;18.30;14.90;;;;;;;6.87;61.08;96978.50;6944942;28;20589;-95
2021/11/28 20:51:07;;;;;;;17.10;13.70;;;;;;;6.58;61.35;96958.72;6961459;28;20269;-94
2021/11/28 20:54:33;;;;;;;16.00;12.50;;;;;;;7.18;61.54;97024.66;6961548;28;20221;-95
2021/11/28 20:57:56;;;;;;;18.63;12.90;;;;;;;6.82;60.92;96919.44;6961037;28;20205;-95
2021/11/28 21:01:20;;;;;;;21.00;14.00;;;;;;;7.56;60.42;97025.16;6961008;28;20218;-93
2021/11/28 21:04:45;;;;;;;15.33;12.23;;;;;;;7.44;60.45;97035.03;6961521;28;20629;-95
2021/11/28 21:08:14;;;;;;;15.03;12.80;;;;;;;7.09;60.10;97025.22;6961311;28;20254;-94
2021/11/28 21:11:45;;;;;;;18.00;13.87;;;;;;;7.14;60.85;97023.47;6962036;28;20211;-95
2021/11/28 21:15:15;;;;;;;15.13;12.10;;;;;;;6.57;61.19;96926.81;6962246;28;20212;-94
2021/11/28 21:18:39;;;;;;;15.00;11.63;;;;;;;6.77;60.88;96984.41;6961377;28;20203;-93
2021/11/28 21:22:02;;;;;;;15.97;12.37;;;;;;;6.78;61.74;97012.03;6960296;28;20216;-94
2021/11/28 21:25:30;;;;;;;17.17;13.87;;;;;;;6.75;61.12;96959.72;6961136;28;20208;-94
2021/11/28 21:28:58;;;;;;;17.53;14.93;;;;;;;6.89;61.48;97014.75;6960928;28;20215;-96
2021/11/28 21:32:21;;;;;;;18.13;12.83;;;;;;;6.86;61.90;97015.22;6960339;28;20217;-96
2021/11/28 21:35:53;;;;;;;15.43;13.17;;;;;;;7.02;61.78;97040.56;6944082;28;20211;-95
2021/11/28 21:39:19;;;;;;;18.43;13.33;;;;;;;7.25;61.30;97054.88;6961379;28;20211;-95
2021/11/28 21:42:48;;;;;;;18.93;14.07;;;;;;;6.80;61.28;96970.59;6962531;28;20210;-95
2021/11/28 21:46:24;;;;;;;19.13;15.27;;;;;;;7.28;61.00;97046.38;6962285;28;20288;-95
2021/11/28 21:49:50;;;;;;;18.13;14.30;;;;;;;6.94;61.60;96995.31;6961427;28;20337;-95
2021/11/28 21:53:15;;;;;;;20.73;14.43;;;;;;;6.77;61.13;96976.38;6944935;28;20235;-94
2021/11/28 21:56:43;;;;;;;17.07;13.23;;;;;;;7.46;61.31;97064.28;6974684;28;20219;-95
2021/11/28 22:00:20;;;;;;;18.97;12.73;;;;;;;6.78;60.91;96995.97;6976465;28;20194;-94
